Portland, PA (18351)

3:09 AM EST on December 27, 2014 (GMT -0500)
Callie's Farm | Change Station
CLOSE
Current Station
Personal Weather Station
Location: Bangor, PA
Elevation: 725 ft
Nearby Weather Stations

Elev 725 ft 40.87 °N, 75.17 °W | Updated 4 minutes ago

Clear
Clear
30.7 °F
Feels Like 31 °F
N
1.0
Wind Variable Wind from West
Gusts 3.0 mph

Today
High -- | Low -- °F
--% Chance of Precip.
Yesterday
High -- | Low -- °F
Precip. -- in
7:24 AM 4:39 PM
Waxing Crescent, 34% visible
Pressure 30.21 in
Visibility 10.0 miles
Clouds Clear
Windchill 31 °F
Dew Point 30 °F
Humidity 99%
Rainfall 0.00 in
Snow Depth Not available.
UV 0 out of 12
Pollen .10 out of 12
Air Quality Not available.
Flu Activity Not available.
METAR KMPO 270753Z AUTO 32005KT 10SM CLR 02/M03 A3016 RMK AO2 SLP228 T00171028

More Conditions Fewer Conditions

Pressure 30.21 in
Visibility 10.0 miles
Clouds Clear
Windchill 31 °F
Dew Point 30 °F
Humidity 99%
Rainfall 0.00 in
Snow Depth Not available.
UV 0 out of 12
Pollen .10 out of 12
Air Quality Not available.
Flu Activity Not available.
METAR KMPO 270753Z AUTO 32005KT 10SM CLR 02/M03 A3016 RMK AO2 SLP228 T00171028

More Conditions Fewer Conditions

10-Day Weather Forecast

Almanac

Astronomy

Dec. 27, 2014 Rise Set
Actual Time
Civil Twilight
Nautical Twilight
Astronomical Twilight
Moon
Length of Visible Light
Length of Day
Tomorrow will be .
, % of the Moon is Illuminated

Today's Extremes

State Highs State Lows

Community

WunderPhotos

Upload Photos

1,780,863 photos uploaded!

WunderBlogs® & News

Nearby

Air Quality

  Air Quality AQ Index Pollutant
Not available.

Snow Depth

Station Depth Elevation

Earthquake Activity

City Distance Mag. Time & Date
Minimum magnitude displayed is 2.5.

Coastal Water Temperatures

Place Temperature

Nearby Weather Stations